X  Schließen METAR Luftfahrt Wetterdaten     LGTS Thessaloniki Macedonia International Airport
Temperatur
20°C Temperatur
9°C Taupunkt
49% Feuchtigkeit



Wind
21 KM/S
13 MPS
6 M/S
11 KTS



100°
O
Aktuelle Wetterlage

Teilweise bewölkt Teilweise bewölkt
Luftdruck 1008.81 (hPa) - 29.79 (inHg)
Sichtweite 6 (Meile) - 9.7 (Km)
Flughafen
Flughafen Code LGTS

Position : Thessaloniki Macedonia International Airport
Entfernung: 85 (Km)

Metar:
LGTS 021450Z 10011KT 9999 FEW020 20/09 Q1009 NOSIG

Zeit: 02-12-2023 16:50 EET